createdAt,value
2022-10-30T00:01:48.256Z,79.12
2022-10-30T00:04:15.668Z,79.76
2022-10-30T00:06:42.683Z,80.34
2022-10-30T00:09:10.794Z,79.91
2022-10-30T00:11:37.834Z,78.86
2022-10-30T00:14:04.930Z,78.64
2022-10-30T00:16:31.873Z,79.47
2022-10-30T00:18:59.016Z,80.27
2022-10-30T00:21:26.226Z,79.80
2022-10-30T00:23:53.992Z,79.23
2022-10-30T00:26:22.031Z,78.94
2022-10-30T00:28:53.617Z,79.59
2022-10-30T00:31:21.178Z,80.77
2022-10-30T00:33:52.351Z,81.13
2022-10-30T00:36:19.883Z,80.06
2022-10-30T00:38:46.975Z,79.75
2022-10-30T00:41:19.238Z,80.22
2022-10-30T00:43:46.863Z,80.96
2022-10-30T00:46:26.089Z,80.92
2022-10-30T00:48:56.786Z,79.42
2022-10-30T00:51:23.919Z,79.60
2022-10-30T00:53:51.022Z,80.22
2022-10-30T00:56:19.762Z,81.49
2022-10-30T00:58:53.192Z,81.00
2022-10-30T01:01:21.562Z,79.75
2022-10-30T01:03:49.401Z,80.02
2022-10-30T01:06:18.284Z,80.83
2022-10-30T01:08:45.823Z,81.96
2022-10-30T01:11:13.087Z,81.28
2022-10-30T01:13:41.426Z,79.75
2022-10-30T01:16:34.600Z,80.25
2022-10-30T01:19:30.203Z,81.08
2022-10-30T01:22:21.935Z,82.31
2022-10-30T01:25:08.066Z,80.87
2022-10-30T01:28:06.769Z,80.14
2022-10-30T01:30:41.211Z,81.19
2022-10-30T01:33:33.270Z,82.90
2022-10-30T01:36:22.690Z,84.27
2022-10-30T01:39:03.021Z,82.47
2022-10-30T01:41:30.356Z,81.73
2022-10-30T01:44:01.751Z,82.87
2022-10-30T01:47:11.663Z,84.54
2022-10-30T01:49:41.981Z,85.19
2022-10-30T01:52:39.952Z,84.03
2022-10-30T01:55:21.644Z,84.01
2022-10-30T01:58:02.723Z,83.85
2022-10-30T02:00:29.765Z,85.04
2022-10-30T02:02:57.192Z,83.73
2022-10-30T02:05:36.973Z,82.35
2022-10-30T02:08:04.028Z,82.48
2022-10-30T02:10:31.992Z,83.55
2022-10-30T02:12:59.337Z,84.04
2022-10-30T02:15:26.385Z,82.88
2022-10-30T02:17:55.259Z,81.93
2022-10-30T02:20:22.584Z,81.43
2022-10-30T02:22:53.034Z,82.34
2022-10-30T02:25:23.488Z,83.02
2022-10-30T02:27:50.533Z,82.26
2022-10-30T02:30:17.652Z,81.24
2022-10-30T02:32:44.837Z,81.33
2022-10-30T02:35:12.822Z,82.49
2022-10-30T02:37:40.360Z,83.51
2022-10-30T02:40:08.631Z,82.51
2022-10-30T02:42:36.108Z,80.92
2022-10-30T02:45:03.857Z,81.14
2022-10-30T02:47:30.852Z,82.03
2022-10-30T02:49:57.855Z,83.04
2022-10-30T02:52:26.297Z,82.68
2022-10-30T02:54:53.378Z,81.57
2022-10-30T02:57:20.410Z,81.28
2022-10-30T02:59:47.491Z,82.23
2022-10-30T03:02:14.922Z,83.56
2022-10-30T03:04:42.115Z,82.71
2022-10-30T03:07:11.512Z,81.36
2022-10-30T03:09:38.631Z,82.01
2022-10-30T03:12:05.951Z,82.33
2022-10-30T03:14:33.138Z,83.16
2022-10-30T03:17:00.429Z,82.14
2022-10-30T03:19:27.460Z,81.33
2022-10-30T03:21:55.077Z,81.47
2022-10-30T03:24:22.162Z,82.81
2022-10-30T03:26:49.703Z,83.15
2022-10-30T03:29:16.993Z,82.41
2022-10-30T03:31:44.107Z,81.90
2022-10-30T03:34:14.528Z,82.80
2022-10-30T03:36:42.013Z,83.63
2022-10-30T03:39:09.240Z,83.64
2022-10-30T03:41:36.557Z,83.22
2022-10-30T03:44:03.744Z,82.91
2022-10-30T03:46:31.817Z,83.52
2022-10-30T03:49:11.053Z,84.30
2022-10-30T03:51:38.244Z,84.91
2022-10-30T03:54:06.686Z,83.89
2022-10-30T03:56:33.790Z,83.09
2022-10-30T03:59:00.977Z,84.09
2022-10-30T04:01:28.316Z,84.53
2022-10-30T04:03:56.833Z,84.41
2022-10-30T04:06:24.996Z,83.28
2022-10-30T04:08:55.091Z,83.57
2022-10-30T04:11:23.664Z,84.45
2022-10-30T04:13:51.051Z,85.37
2022-10-30T04:16:18.228Z,83.42
2022-10-30T04:18:45.341Z,83.11
2022-10-30T04:21:12.390Z,83.86
2022-10-30T04:23:39.746Z,84.51
2022-10-30T04:26:06.986Z,84.75
2022-10-30T04:28:36.851Z,83.56
2022-10-30T04:31:04.168Z,83.59
2022-10-30T04:33:31.832Z,84.63
2022-10-30T04:35:59.431Z,84.66
2022-10-30T04:38:26.432Z,83.93
2022-10-30T04:40:53.435Z,83.28
2022-10-30T04:43:20.734Z,83.59
2022-10-30T04:45:50.544Z,84.47
2022-10-30T04:48:18.435Z,85.86
2022-10-30T04:50:47.013Z,85.11
2022-10-30T04:53:21.513Z,83.62
2022-10-30T04:55:53.953Z,83.83
2022-10-30T04:58:21.138Z,84.40
2022-10-30T05:00:52.418Z,85.37
2022-10-30T05:03:21.934Z,84.53
2022-10-30T05:05:49.710Z,83.19
2022-10-30T05:08:16.802Z,83.05
2022-10-30T05:10:43.883Z,83.60
2022-10-30T05:13:12.552Z,83.71
2022-10-30T05:15:39.723Z,81.78
2022-10-30T05:18:06.757Z,82.12
2022-10-30T05:20:33.762Z,82.10
2022-10-30T05:23:00.941Z,82.18
2022-10-30T05:25:28.008Z,82.48
2022-10-30T05:28:03.592Z,81.46
2022-10-30T05:30:33.645Z,81.17
2022-10-30T05:33:02.285Z,82.01
2022-10-30T05:35:29.843Z,82.52
2022-10-30T05:37:58.181Z,82.83
2022-10-30T05:40:25.629Z,81.43
2022-10-30T05:42:53.106Z,80.69
2022-10-30T05:45:20.637Z,81.39
2022-10-30T05:48:04.788Z,80.85
2022-10-30T05:50:35.213Z,81.35
2022-10-30T05:53:16.835Z,81.76
2022-10-30T05:55:44.209Z,80.59
2022-10-30T05:58:16.639Z,80.75
2022-10-30T06:00:44.937Z,81.13
2022-10-30T06:03:14.038Z,81.60
2022-10-30T06:05:45.047Z,81.96
2022-10-30T06:08:13.005Z,80.96
2022-10-30T06:10:40.008Z,80.41
2022-10-30T06:13:30.023Z,80.00
2022-10-30T06:16:00.906Z,81.01
2022-10-30T06:18:41.984Z,81.54
2022-10-30T06:21:11.464Z,79.98
2022-10-30T06:23:48.751Z,80.03
2022-10-30T06:26:47.916Z,80.83
2022-10-30T06:29:16.228Z,81.47
2022-10-30T06:31:43.364Z,81.46
2022-10-30T06:34:10.379Z,79.58
2022-10-30T06:36:39.881Z,79.11
2022-10-30T06:39:07.121Z,79.12
2022-10-30T06:41:41.322Z,79.76
2022-10-30T06:44:28.721Z,80.90
2022-10-30T06:46:55.946Z,80.46
2022-10-30T06:49:23.424Z,79.29
2022-10-30T06:51:51.453Z,78.83
2022-10-30T06:54:18.575Z,79.11
2022-10-30T06:57:05.590Z,79.85
2022-10-30T07:00:00.337Z,80.26
2022-10-30T07:03:01.219Z,78.81
2022-10-30T07:05:29.685Z,78.20
2022-10-30T07:07:57.964Z,78.69
2022-10-30T07:10:25.073Z,79.30
2022-10-30T07:13:17.303Z,80.11
2022-10-30T07:15:53.411Z,78.74
2022-10-30T07:18:24.153Z,77.05
2022-10-30T07:20:58.376Z,77.41
2022-10-30T07:23:26.581Z,78.39
2022-10-30T07:26:03.861Z,79.17
2022-10-30T07:28:36.216Z,79.17
2022-10-30T07:31:41.479Z,77.61
2022-10-30T07:34:10.009Z,76.73
2022-10-30T07:37:00.109Z,77.63
2022-10-30T07:39:43.427Z,77.40
2022-10-30T07:42:23.182Z,77.87
2022-10-30T07:48:15.429Z,74.48
2022-10-30T07:50:48.320Z,74.95
2022-10-30T07:53:15.574Z,75.06
2022-10-30T07:55:43.300Z,75.26
2022-10-30T07:58:13.001Z,75.26
2022-10-30T08:01:12.493Z,75.56
2022-10-30T08:03:39.674Z,74.69
2022-10-30T08:06:24.640Z,74.62
2022-10-30T08:08:54.243Z,74.35
2022-10-30T08:11:26.679Z,74.52
2022-10-30T08:13:54.204Z,74.41
2022-10-30T08:16:21.385Z,75.10
2022-10-30T08:18:49.354Z,74.89
2022-10-30T08:21:18.516Z,74.87
2022-10-30T08:23:54.515Z,73.99
2022-10-30T08:26:22.548Z,73.39
2022-10-30T08:28:49.694Z,73.64
2022-10-30T08:31:16.791Z,74.04
2022-10-30T08:34:04.833Z,74.92
2022-10-30T08:36:51.214Z,74.30
2022-10-30T08:39:19.203Z,74.49
2022-10-30T08:42:06.630Z,74.28
2022-10-30T08:44:39.079Z,72.87
2022-10-30T08:47:24.981Z,71.06
2022-10-30T08:49:52.097Z,71.12
2022-10-30T08:52:21.807Z,71.45
2022-10-30T08:54:54.478Z,71.56
2022-10-30T08:57:23.788Z,71.27
2022-10-30T08:59:51.341Z,71.31
2022-10-30T09:02:47.725Z,71.25
2022-10-30T09:05:33.189Z,71.20
2022-10-30T09:08:23.856Z,70.39
2022-10-30T09:11:06.056Z,70.57
2022-10-30T09:13:33.241Z,70.42
2022-10-30T09:16:01.799Z,69.26
2022-10-30T09:18:30.068Z,69.57
2022-10-30T09:20:57.627Z,70.64
2022-10-30T09:23:25.295Z,70.34
2022-10-30T09:25:58.427Z,69.18
2022-10-30T09:28:44.256Z,69.09
2022-10-30T09:31:31.516Z,68.24
2022-10-30T09:33:58.833Z,68.81
2022-10-30T09:36:38.782Z,68.34
2022-10-30T09:39:05.943Z,68.63
2022-10-30T09:42:17.993Z,68.21
2022-10-30T09:45:27.340Z,68.87
2022-10-30T09:48:27.004Z,68.78
2022-10-30T09:51:06.280Z,67.89
2022-10-30T09:54:03.096Z,68.68
2022-10-30T09:56:46.302Z,68.94
2022-10-30T10:00:03.885Z,69.54
2022-10-30T10:02:34.638Z,69.73
2022-10-30T10:05:06.488Z,70.61
2022-10-30T10:08:09.149Z,69.67
2022-10-30T10:10:58.387Z,67.26
2022-10-30T10:13:33.361Z,67.43
2022-10-30T10:16:20.982Z,67.20
2022-10-30T10:18:54.031Z,66.60
2022-10-30T10:21:25.914Z,65.89
2022-10-30T10:23:55.850Z,64.89
2022-10-30T10:26:47.887Z,64.92
2022-10-30T10:29:36.540Z,65.16
2022-10-30T10:32:12.961Z,65.57
2022-10-30T10:34:52.702Z,64.50
2022-10-30T10:37:54.158Z,64.23
2022-10-30T10:40:46.498Z,63.93
2022-10-30T10:43:38.732Z,63.04
2022-10-30T10:46:41.529Z,61.37
2022-10-30T10:49:27.678Z,61.77
2022-10-30T10:52:02.926Z,60.81
2022-10-30T10:54:31.345Z,60.65
2022-10-30T10:57:00.021Z,60.71
2022-10-30T10:59:39.252Z,60.16
2022-10-30T11:02:06.403Z,60.04
2022-10-30T11:04:37.547Z,59.36
2022-10-30T11:07:23.316Z,59.60
2022-10-30T11:09:54.602Z,60.03
2022-10-30T11:12:27.565Z,59.98
2022-10-30T11:14:59.694Z,60.38
2022-10-30T11:17:32.917Z,59.51
2022-10-30T11:20:02.227Z,59.32
2022-10-30T11:22:33.890Z,61.49
2022-10-30T11:25:23.069Z,62.95
2022-10-30T11:28:00.024Z,64.37
2022-10-30T11:30:28.793Z,62.99
2022-10-30T11:32:58.192Z,62.06
2022-10-30T11:35:25.451Z,62.35
2022-10-30T11:38:12.243Z,61.58
2022-10-30T11:40:41.265Z,60.91
2022-10-30T11:43:08.836Z,60.30
2022-10-30T11:45:41.100Z,60.83
2022-10-30T11:48:21.018Z,60.25
2022-10-30T11:50:49.415Z,60.49
2022-10-30T11:53:31.551Z,60.42
2022-10-30T11:55:58.903Z,59.79
2022-10-30T11:58:33.627Z,57.69
2022-10-30T12:01:13.367Z,58.11
2022-10-30T12:03:41.634Z,58.22
2022-10-30T12:06:09.704Z,59.31
2022-10-30T12:08:36.854Z,58.97
2022-10-30T12:11:05.190Z,58.95
2022-10-30T12:13:39.808Z,59.55
2022-10-30T12:16:18.097Z,60.78
2022-10-30T12:18:54.618Z,61.53
2022-10-30T12:21:21.795Z,61.77
2022-10-30T12:23:58.156Z,62.46
2022-10-30T12:26:25.505Z,62.92
2022-10-30T12:28:58.806Z,62.90
2022-10-30T12:31:43.153Z,62.79
2022-10-30T12:34:25.378Z,62.84
2022-10-30T12:36:55.778Z,62.79
2022-10-30T12:39:27.066Z,62.39
2022-10-30T12:41:58.795Z,61.38
2022-10-30T12:44:32.635Z,60.75
2022-10-30T12:47:13.978Z,60.88
2022-10-30T12:52:50.913Z,60.88
2022-10-30T12:55:21.690Z,61.40
2022-10-30T12:58:04.345Z,61.35
2022-10-30T13:00:32.497Z,61.56
2022-10-30T13:03:15.004Z,61.77
2022-10-30T13:05:45.844Z,61.32
2022-10-30T13:08:15.479Z,60.97
2022-10-30T13:10:45.587Z,60.81
2022-10-30T13:13:19.187Z,61.84
2022-10-30T13:15:57.074Z,61.74
2022-10-30T13:18:25.577Z,62.68
2022-10-30T13:21:04.385Z,63.02
2022-10-30T13:23:37.915Z,63.02
2022-10-30T13:26:17.520Z,62.83
2022-10-30T13:28:56.092Z,61.84
2022-10-30T13:31:30.771Z,62.19
2022-10-30T13:34:03.489Z,61.87
2022-10-30T13:36:56.940Z,62.29
2022-10-30T13:40:01.223Z,62.48
2022-10-30T13:42:32.064Z,62.64
2022-10-30T13:45:06.806Z,62.94
2022-10-30T13:47:45.138Z,63.43
2022-10-30T13:50:25.162Z,63.50
2022-10-30T13:52:55.154Z,63.43
2022-10-30T13:55:27.652Z,63.91
2022-10-30T13:58:01.323Z,63.94
2022-10-30T14:03:14.131Z,64.48
2022-10-30T14:06:04.378Z,64.77
2022-10-30T14:08:46.931Z,64.88
2022-10-30T14:11:14.237Z,65.19
2022-10-30T14:13:46.923Z,64.28
2022-10-30T14:16:46.695Z,63.55
2022-10-30T14:19:14.910Z,63.97
2022-10-30T14:21:55.393Z,64.26
2022-10-30T14:24:30.419Z,65.43
2022-10-30T14:27:03.907Z,65.76
2022-10-30T14:29:33.227Z,66.28
2022-10-30T14:32:01.173Z,66.77
2022-10-30T14:34:40.824Z,67.29
2022-10-30T14:37:07.825Z,67.87
2022-10-30T14:39:45.073Z,68.39
2022-10-30T14:42:25.340Z,67.42
2022-10-30T14:45:11.302Z,66.02
2022-10-30T14:47:52.268Z,65.86
2022-10-30T14:50:19.433Z,66.15
2022-10-30T14:52:59.656Z,66.57
2022-10-30T14:55:32.356Z,67.72
2022-10-30T14:58:02.661Z,68.27
2022-10-30T15:00:34.935Z,68.59
2022-10-30T15:03:20.394Z,69.10
2022-10-30T15:05:51.811Z,69.29
2022-10-30T15:08:53.150Z,70.25
2022-10-30T15:11:26.274Z,69.31
2022-10-30T15:13:59.303Z,67.75
2022-10-30T15:16:28.095Z,67.43
2022-10-30T15:19:02.111Z,67.94
2022-10-30T15:21:31.275Z,69.09
2022-10-30T15:23:59.201Z,70.22
2022-10-30T15:26:33.136Z,70.73
2022-10-30T15:29:00.539Z,70.56
2022-10-30T15:31:28.612Z,70.92
2022-10-30T15:33:55.745Z,71.40
2022-10-30T15:36:24.700Z,71.61
2022-10-30T15:39:12.079Z,70.49
2022-10-30T15:41:48.439Z,69.78
2022-10-30T15:44:21.457Z,69.96
2022-10-30T15:46:50.267Z,70.30
2022-10-30T15:49:21.605Z,71.01
2022-10-30T15:51:48.650Z,71.79
2022-10-30T15:54:19.426Z,72.35
2022-10-30T15:57:17.951Z,73.14
2022-10-30T15:59:35.557Z,73.22
2022-10-30T16:02:02.767Z,71.50
2022-10-30T16:04:36.413Z,71.33
2022-10-30T16:07:16.827Z,71.25
2022-10-30T16:09:53.083Z,71.47
2022-10-30T16:12:21.106Z,72.41
2022-10-30T16:14:48.146Z,72.61
2022-10-30T16:17:16.519Z,73.05
2022-10-30T16:19:48.732Z,73.71
2022-10-30T16:22:20.577Z,73.42
2022-10-30T16:24:48.007Z,72.23
2022-10-30T16:27:17.203Z,71.73
2022-10-30T16:29:45.653Z,71.42
2022-10-30T16:32:15.947Z,72.14
2022-10-30T16:34:43.092Z,73.01
2022-10-30T16:37:14.969Z,74.32
2022-10-30T16:39:42.068Z,74.56
2022-10-30T16:42:22.126Z,75.76
2022-10-30T16:44:49.435Z,75.30
2022-10-30T16:47:16.931Z,73.27
2022-10-30T16:49:48.638Z,72.42
2022-10-30T16:52:17.293Z,72.45
2022-10-30T16:55:07.604Z,73.22
2022-10-30T16:57:41.886Z,74.20
2022-10-30T17:00:25.934Z,75.17
2022-10-30T17:02:55.717Z,75.40
2022-10-30T17:05:37.264Z,73.92
2022-10-30T17:08:25.369Z,71.37
2022-10-30T17:10:59.911Z,70.89
2022-10-30T17:13:42.942Z,71.58
2022-10-30T17:16:13.841Z,72.56
2022-10-30T17:18:41.005Z,73.03
2022-10-30T17:21:10.777Z,74.00
2022-10-30T17:23:37.960Z,75.31
2022-10-30T17:26:09.820Z,74.88
2022-10-30T17:28:37.293Z,73.20
2022-10-30T17:31:23.404Z,73.09
2022-10-30T17:34:02.846Z,73.82
2022-10-30T17:36:29.976Z,74.57
2022-10-30T17:38:56.985Z,75.54
2022-10-30T17:41:26.833Z,76.60
2022-10-30T17:43:55.816Z,77.56
2022-10-30T17:46:23.889Z,76.74
2022-10-30T17:48:51.141Z,75.18
2022-10-30T17:51:18.597Z,74.43
2022-10-30T17:53:49.226Z,74.56
2022-10-30T17:56:25.750Z,74.97
2022-10-30T17:58:52.944Z,76.38
2022-10-30T18:01:25.025Z,77.31
2022-10-30T18:03:53.294Z,78.51
2022-10-30T18:06:22.591Z,77.85
2022-10-30T18:08:50.943Z,75.31
2022-10-30T18:11:22.324Z,74.87
2022-10-30T18:13:50.382Z,75.48
2022-10-30T18:16:18.386Z,76.23
2022-10-30T18:18:45.704Z,77.41
2022-10-30T18:21:16.550Z,78.54
2022-10-30T18:23:58.997Z,79.70
2022-10-30T18:26:27.072Z,78.85
2022-10-30T18:28:54.377Z,76.45
2022-10-30T18:31:23.161Z,76.18
2022-10-30T18:33:50.457Z,76.95
2022-10-30T18:36:19.422Z,77.56
2022-10-30T18:38:46.826Z,78.49
2022-10-30T18:41:15.704Z,79.46
2022-10-30T18:43:46.641Z,78.69
2022-10-30T18:46:14.987Z,76.96
2022-10-30T18:48:42.137Z,76.50
2022-10-30T18:51:23.506Z,76.64
2022-10-30T18:53:53.827Z,77.64
2022-10-30T18:56:24.322Z,78.47
2022-10-30T18:58:54.857Z,79.15
2022-10-30T19:01:26.306Z,78.61
2022-10-30T19:03:53.488Z,76.47
2022-10-30T19:06:22.476Z,76.00
2022-10-30T19:08:49.624Z,76.77
2022-10-30T19:11:22.008Z,77.44
2022-10-30T19:13:52.015Z,78.08
2022-10-30T19:16:19.391Z,79.43
2022-10-30T19:18:47.161Z,78.70
2022-10-30T19:21:25.925Z,76.98
2022-10-30T19:23:54.755Z,76.74
2022-10-30T19:26:21.760Z,77.58
2022-10-30T19:28:48.839Z,78.49
2022-10-30T19:31:19.482Z,79.66
2022-10-30T19:33:50.034Z,80.19
2022-10-30T19:36:34.106Z,78.91
2022-10-30T19:39:08.580Z,76.96
2022-10-30T19:41:37.520Z,76.89
2022-10-30T19:44:04.799Z,77.60
2022-10-30T19:46:31.884Z,78.59
2022-10-30T19:48:59.865Z,79.44
2022-10-30T19:51:28.287Z,80.72
2022-10-30T19:53:55.562Z,79.55
2022-10-30T19:56:22.695Z,78.16
2022-10-30T19:58:50.213Z,78.01
2022-10-30T20:01:18.757Z,78.39
2022-10-30T20:03:46.066Z,79.25
2022-10-30T20:06:14.788Z,79.67
2022-10-30T20:08:42.143Z,80.63
2022-10-30T20:11:09.207Z,79.63
2022-10-30T20:13:37.496Z,78.34
2022-10-30T20:16:05.595Z,78.43
2022-10-30T20:18:34.556Z,79.55
2022-10-30T20:21:03.631Z,79.87
2022-10-30T20:23:31.294Z,80.73
2022-10-30T20:26:02.945Z,79.92
2022-10-30T20:28:35.541Z,77.68
2022-10-30T20:31:02.706Z,77.44
2022-10-30T20:33:30.032Z,78.08
2022-10-30T20:35:57.157Z,79.08
2022-10-30T20:38:26.522Z,79.79
2022-10-30T20:40:53.830Z,80.34
2022-10-30T20:43:28.458Z,78.51
2022-10-30T20:45:55.546Z,78.08
2022-10-30T20:48:22.652Z,78.74
2022-10-30T20:50:52.720Z,79.26
2022-10-30T20:53:19.682Z,80.44
2022-10-30T20:55:46.653Z,80.42
2022-10-30T20:58:13.938Z,79.08
2022-10-30T21:00:42.218Z,77.99
2022-10-30T21:03:10.563Z,78.71
2022-10-30T21:05:43.713Z,79.45
2022-10-30T21:08:12.751Z,80.70
2022-10-30T21:10:40.217Z,80.95
2022-10-30T21:13:09.889Z,79.20
2022-10-30T21:15:41.775Z,78.85
2022-10-30T21:18:09.425Z,79.11
2022-10-30T21:20:37.066Z,80.41
2022-10-30T21:23:04.765Z,80.99
2022-10-30T21:25:32.750Z,79.89
2022-10-30T21:28:00.507Z,78.26
2022-10-30T21:30:28.032Z,78.43
2022-10-30T21:32:55.119Z,79.28
2022-10-30T21:35:22.245Z,80.07
2022-10-30T21:37:49.535Z,80.46
2022-10-30T21:40:16.651Z,81.02
2022-10-30T21:42:43.702Z,80.21
2022-10-30T21:45:10.749Z,79.11
2022-10-30T21:47:37.997Z,79.22
2022-10-30T21:50:07.684Z,79.97
2022-10-30T21:52:35.076Z,81.54
2022-10-30T21:55:02.158Z,82.09
2022-10-30T21:57:29.763Z,80.30
2022-10-30T21:59:58.916Z,80.19
2022-10-30T22:02:31.517Z,80.50
2022-10-30T22:04:58.605Z,80.99
2022-10-30T22:07:25.741Z,81.43
2022-10-30T22:09:53.762Z,80.76
2022-10-30T22:12:20.865Z,79.55
2022-10-30T22:14:47.815Z,79.67
2022-10-30T22:17:14.862Z,80.06
2022-10-30T22:19:41.885Z,80.70
2022-10-30T22:22:09.417Z,81.41
2022-10-30T22:24:36.505Z,80.15
2022-10-30T22:27:03.743Z,79.67
2022-10-30T22:29:30.723Z,80.65
2022-10-30T22:31:57.806Z,81.45
2022-10-30T22:34:24.759Z,81.85
2022-10-30T22:36:51.846Z,80.76
2022-10-30T22:39:18.919Z,80.54
2022-10-30T22:41:45.946Z,80.26
2022-10-30T22:44:14.163Z,81.28
2022-10-30T22:46:41.136Z,82.35
2022-10-30T22:49:08.411Z,81.50
2022-10-30T22:51:36.804Z,80.38
2022-10-30T22:54:05.496Z,80.46
2022-10-30T22:56:33.650Z,81.18
2022-10-30T22:59:01.661Z,82.35
2022-10-30T23:01:30.223Z,82.18
2022-10-30T23:03:58.728Z,80.74
2022-10-30T23:06:26.553Z,80.99
2022-10-30T23:08:54.414Z,81.83
2022-10-30T23:11:22.484Z,82.37
2022-10-30T23:13:49.552Z,82.85
2022-10-30T23:16:18.397Z,81.67
2022-10-30T23:18:45.582Z,80.54
2022-10-30T23:21:14.668Z,81.34
2022-10-30T23:23:42.007Z,81.95
2022-10-30T23:26:14.532Z,82.93
2022-10-30T23:28:41.750Z,81.96
2022-10-30T23:31:20.068Z,81.22
2022-10-30T23:33:50.925Z,81.17
2022-10-30T23:36:18.352Z,82.42
2022-10-30T23:38:45.889Z,82.95
2022-10-30T23:41:12.983Z,82.24
2022-10-30T23:43:40.212Z,81.38
2022-10-30T23:46:07.213Z,81.30
2022-10-30T23:48:34.213Z,81.57
2022-10-30T23:51:06.455Z,83.07
2022-10-30T23:53:33.525Z,83.71
2022-10-30T23:56:00.583Z,82.28
2022-10-30T23:58:27.654Z,81.78
